createdAt,value
2019-04-20T00:00:05.852Z,12.21
2019-04-20T00:02:33.634Z,12.16
2019-04-20T00:05:03.473Z,12.09
2019-04-20T00:07:35.913Z,12.04
2019-04-20T00:10:10.933Z,11.98
2019-04-20T00:12:54.532Z,11.94
2019-04-20T00:15:11.076Z,11.89
2019-04-20T00:17:45.991Z,11.82
2019-04-20T00:20:18.971Z,11.76
2019-04-20T00:22:58.162Z,11.71
2019-04-20T00:25:54.367Z,11.65
2019-04-20T00:28:38.714Z,11.58
2019-04-20T00:31:05.581Z,11.53
2019-04-20T00:33:31.126Z,11.49
2019-04-20T00:35:52.844Z,11.44
2019-04-20T00:38:25.919Z,11.38
2019-04-20T00:40:58.279Z,11.31
2019-04-20T00:43:28.135Z,11.24
2019-04-20T00:46:06.016Z,11.18
2019-04-20T00:48:37.593Z,11.14
2019-04-20T00:51:17.331Z,11.12
2019-04-20T00:53:36.234Z,11.15
2019-04-20T00:56:01.252Z,11.18
2019-04-20T00:58:42.367Z,11.21
2019-04-20T01:01:20.338Z,11.22
2019-04-20T01:03:46.393Z,11.23
2019-04-20T01:06:23.165Z,11.22
2019-04-20T01:08:52.908Z,11.20
2019-04-20T01:11:28.904Z,11.17
2019-04-20T01:14:00.531Z,11.13
2019-04-20T01:16:36.499Z,11.09
2019-04-20T01:18:56.087Z,11.06
2019-04-20T01:21:28.845Z,11.01
2019-04-20T01:24:01.519Z,11.00
2019-04-20T01:26:29.294Z,10.96
2019-04-20T01:29:15.880Z,10.93
2019-04-20T01:31:38.401Z,10.92
2019-04-20T01:34:08.296Z,10.90
2019-04-20T01:36:50.724Z,10.87
2019-04-20T01:39:18.399Z,10.84
2019-04-20T01:41:39.237Z,10.80
2019-04-20T01:44:09.190Z,10.78
2019-04-20T01:46:45.695Z,10.75
2019-04-20T01:49:15.502Z,10.71
2019-04-20T01:51:53.707Z,10.67
2019-04-20T01:54:31.594Z,10.61
2019-04-20T01:57:00.424Z,10.56
2019-04-20T01:59:46.101Z,10.50
2019-04-20T02:02:13.201Z,10.44
2019-04-20T02:04:46.037Z,10.36
2019-04-20T02:07:18.308Z,10.30
2019-04-20T02:09:51.302Z,10.24
2019-04-20T02:12:23.642Z,10.19
2019-04-20T02:14:53.663Z,10.14
2019-04-20T02:17:27.904Z,10.09
2019-04-20T02:20:14.398Z,10.04
2019-04-20T02:22:39.664Z,9.97
2019-04-20T02:24:53.023Z,9.94
2019-04-20T02:27:29.969Z,9.90
2019-04-20T02:30:21.860Z,9.86
2019-04-20T02:33:09.782Z,9.83
2019-04-20T02:35:38.296Z,9.79
2019-04-20T02:43:35.725Z,9.64
2019-04-20T02:45:40.333Z,9.63
2019-04-20T02:48:15.931Z,9.57
2019-04-20T02:50:47.484Z,9.56
2019-04-20T02:53:22.066Z,9.53
2019-04-20T02:55:51.799Z,9.50
2019-04-20T02:58:18.688Z,9.47
2019-04-20T03:00:39.628Z,9.41
2019-04-20T03:02:59.992Z,9.37
2019-04-20T03:05:30.804Z,9.35
2019-04-20T03:08:09.986Z,9.31
2019-04-20T03:10:50.584Z,9.30
2019-04-20T03:13:14.429Z,9.27
2019-04-20T03:15:42.325Z,9.27
2019-04-20T03:18:14.984Z,9.21
2019-04-20T03:20:46.279Z,9.20
2019-04-20T03:26:01.012Z,9.13
2019-04-20T03:28:28.415Z,9.09
2019-04-20T03:33:51.463Z,8.90
2019-04-20T03:36:12.138Z,8.84
2019-04-20T03:38:34.810Z,8.78
2019-04-20T03:40:54.481Z,8.76
2019-04-20T03:43:16.111Z,8.69
2019-04-20T03:45:54.374Z,8.66
2019-04-20T03:48:35.918Z,8.63
2019-04-20T03:51:07.296Z,8.58
2019-04-20T03:53:55.379Z,8.56
2019-04-20T03:56:41.913Z,8.54
2019-04-20T03:59:20.737Z,8.50
2019-04-20T04:02:37.949Z,8.47
2019-04-20T04:05:01.849Z,8.44
2019-04-20T04:07:22.826Z,8.44
2019-04-20T04:10:04.554Z,8.44
2019-04-20T04:12:53.124Z,8.44
2019-04-20T04:15:23.100Z,8.44
2019-04-20T04:17:53.098Z,8.44
2019-04-20T04:20:24.190Z,8.43
2019-04-20T04:23:10.407Z,8.46
2019-04-20T04:25:34.524Z,8.46
2019-04-20T04:28:10.806Z,8.48
2019-04-20T04:30:41.759Z,8.48
2019-04-20T04:33:40.014Z,8.47
2019-04-20T04:35:48.208Z,8.47
2019-04-20T04:38:23.504Z,8.45
2019-04-20T04:41:04.332Z,8.41
2019-04-20T04:43:26.787Z,8.37
2019-04-20T04:45:36.974Z,8.36
2019-04-20T04:48:13.100Z,8.36
2019-04-20T04:50:47.450Z,8.36
2019-04-20T04:53:22.815Z,8.37
2019-04-20T04:55:48.953Z,8.40
2019-04-20T04:58:12.491Z,8.45
2019-04-20T05:00:42.663Z,8.47
2019-04-20T05:03:31.103Z,8.50
2019-04-20T05:06:06.438Z,8.51
2019-04-20T05:08:30.658Z,8.58
2019-04-20T05:10:54.174Z,8.62
2019-04-20T05:13:26.741Z,8.69
2019-04-20T05:16:08.122Z,8.74
2019-04-20T05:18:53.424Z,8.78
2019-04-20T05:21:22.954Z,8.81
2019-04-20T05:23:45.781Z,8.82
2019-04-20T05:26:29.995Z,8.81
2019-04-20T05:28:53.225Z,8.86
2019-04-20T05:31:15.459Z,8.88
2019-04-20T05:34:08.615Z,8.91
2019-04-20T05:36:40.471Z,8.96
2019-04-20T05:39:16.165Z,9.00
2019-04-20T05:41:38.331Z,9.06
2019-04-20T05:44:09.921Z,9.09
2019-04-20T05:46:43.455Z,9.14
2019-04-20T05:49:19.389Z,9.20
2019-04-20T05:51:43.262Z,9.27
2019-04-20T05:54:21.617Z,9.36
2019-04-20T05:56:46.359Z,9.45
2019-04-20T05:59:15.267Z,9.54
2019-04-20T06:01:53.269Z,9.63
2019-04-20T06:04:28.722Z,9.72
2019-04-20T06:06:58.098Z,9.81
2019-04-20T06:09:30.761Z,9.91
2019-04-20T06:12:08.960Z,10.01
2019-04-20T06:14:39.508Z,10.09
2019-04-20T06:17:21.010Z,10.18
2019-04-20T06:19:44.160Z,10.27
2019-04-20T06:22:26.459Z,10.36
2019-04-20T06:25:19.198Z,10.45
2019-04-20T06:27:35.084Z,10.51
2019-04-20T06:30:04.295Z,10.61
2019-04-20T06:33:19.035Z,10.61
2019-04-20T06:36:01.258Z,10.68
2019-04-20T06:38:34.894Z,10.81
2019-04-20T06:40:55.232Z,10.86
2019-04-20T06:43:13.286Z,10.92
2019-04-20T06:45:57.968Z,11.01
2019-04-20T06:48:32.299Z,11.07
2019-04-20T06:50:49.272Z,11.15
2019-04-20T06:53:47.033Z,11.24
2019-04-20T06:56:06.666Z,11.36
2019-04-20T07:01:06.561Z,11.61
2019-04-20T07:03:51.708Z,11.69
2019-04-20T07:06:30.713Z,11.74
2019-04-20T07:09:00.855Z,11.83
2019-04-20T07:11:10.924Z,11.94
2019-04-20T07:13:30.893Z,12.04
2019-04-20T07:16:18.266Z,12.17
2019-04-20T07:19:06.421Z,12.28
2019-04-20T07:24:48.560Z,12.51
2019-04-20T07:27:12.568Z,12.66
2019-04-20T07:29:47.048Z,12.81
2019-04-20T07:32:06.313Z,12.93
2019-04-20T07:34:47.580Z,13.06
2019-04-20T07:39:55.804Z,13.35
2019-04-20T07:42:29.094Z,13.47
2019-04-20T07:45:01.305Z,13.58
2019-04-20T07:47:38.403Z,13.71
2019-04-20T07:49:55.612Z,13.82
2019-04-20T07:52:08.403Z,13.96
2019-04-20T07:55:19.054Z,14.03
2019-04-20T07:57:25.910Z,14.10
2019-04-20T07:59:58.890Z,14.17
2019-04-20T08:02:57.381Z,14.24
2019-04-20T08:05:31.216Z,14.33
2019-04-20T08:08:02.532Z,14.47
2019-04-20T08:10:34.214Z,14.57
2019-04-20T08:13:16.172Z,14.66
2019-04-20T08:18:21.392Z,14.86
2019-04-20T08:20:46.379Z,14.95
2019-04-20T08:23:17.228Z,15.06
2019-04-20T08:25:41.881Z,15.16
2019-04-20T08:28:06.375Z,15.27
2019-04-20T08:31:02.434Z,15.39
2019-04-20T08:33:35.012Z,15.51
2019-04-20T08:36:10.886Z,15.64
2019-04-20T08:41:09.201Z,15.90
2019-04-20T08:43:49.634Z,16.05
2019-04-20T08:46:19.112Z,16.14
2019-04-20T08:48:46.953Z,16.22
2019-04-20T08:51:14.951Z,16.29
2019-04-20T08:53:46.469Z,16.42
2019-04-20T08:56:11.950Z,16.52
2019-04-20T08:58:29.684Z,16.65
2019-04-20T09:01:03.607Z,16.81
2019-04-20T09:03:42.208Z,16.94
2019-04-20T09:06:07.333Z,17.07
2019-04-20T09:08:46.534Z,17.18
2019-04-20T09:11:21.902Z,17.26
2019-04-20T09:13:43.466Z,17.35
2019-04-20T09:16:07.103Z,17.48
2019-04-20T09:18:49.364Z,17.60
2019-04-20T09:21:22.180Z,17.73
2019-04-20T09:24:13.443Z,17.84
2019-04-20T09:26:37.541Z,17.99
2019-04-20T09:29:05.328Z,18.12
2019-04-20T09:31:47.220Z,18.23
2019-04-20T09:34:20.360Z,18.34
2019-04-20T09:36:56.389Z,18.44
2019-04-20T09:39:28.051Z,18.50
2019-04-20T09:42:01.222Z,18.56
2019-04-20T09:44:33.647Z,18.64
2019-04-20T09:47:03.293Z,18.71
2019-04-20T09:49:42.557Z,18.73
2019-04-20T09:52:17.051Z,18.77
2019-04-20T09:54:51.337Z,18.83
2019-04-20T09:57:26.877Z,18.93
2019-04-20T09:59:57.507Z,19.02
2019-04-20T10:02:19.397Z,19.11
2019-04-20T10:04:41.846Z,19.22
2019-04-20T10:07:16.247Z,19.31
2019-04-20T10:09:44.935Z,19.35
2019-04-20T10:12:13.672Z,19.39
2019-04-20T10:14:43.209Z,19.47
2019-04-20T10:17:13.754Z,19.51
2019-04-20T10:19:45.318Z,19.57
2019-04-20T10:22:14.895Z,19.64
2019-04-20T10:24:48.346Z,19.71
2019-04-20T10:27:16.766Z,19.75
2019-04-20T10:29:46.323Z,19.82
2019-04-20T10:32:17.558Z,19.87
2019-04-20T10:34:48.446Z,20.00
2019-04-20T10:37:20.123Z,20.09
2019-04-20T10:39:49.563Z,20.15
2019-04-20T10:42:20.447Z,20.22
2019-04-20T10:44:52.299Z,20.26
2019-04-20T10:47:21.386Z,20.33
2019-04-20T10:49:51.157Z,20.40
2019-04-20T10:52:21.722Z,20.44
2019-04-20T10:54:52.277Z,20.46
2019-04-20T10:57:21.949Z,20.47
2019-04-20T10:59:51.918Z,20.50
2019-04-20T11:02:21.666Z,20.57
2019-04-20T11:04:51.157Z,20.60
2019-04-20T11:07:20.872Z,20.61
2019-04-20T11:10:02.470Z,20.69
2019-04-20T11:12:22.338Z,20.74
2019-04-20T11:14:52.351Z,20.79
2019-04-20T11:17:22.422Z,20.86
2019-04-20T11:19:51.979Z,20.93
2019-04-20T11:22:22.219Z,21.00
2019-04-20T11:24:52.389Z,21.03
2019-04-20T11:27:22.524Z,21.09
2019-04-20T11:29:52.151Z,21.19
2019-04-20T11:32:22.235Z,21.21
2019-04-20T11:34:51.806Z,21.21
2019-04-20T11:37:22.711Z,21.17
2019-04-20T11:39:53.216Z,21.22
2019-04-20T11:42:23.621Z,21.21
2019-04-20T11:44:53.082Z,21.25
2019-04-20T11:47:22.548Z,21.23
2019-04-20T11:49:53.175Z,21.19
2019-04-20T11:52:24.638Z,21.20
2019-04-20T11:54:54.665Z,21.20
2019-04-20T11:57:25.052Z,21.07
2019-04-20T11:59:54.997Z,21.06
2019-04-20T12:02:35.091Z,21.07
2019-04-20T12:05:13.354Z,21.09
2019-04-20T12:07:49.063Z,21.11
2019-04-20T12:10:22.719Z,21.14
2019-04-20T12:12:55.520Z,21.14
2019-04-20T12:15:24.474Z,21.14
2019-04-20T12:17:53.982Z,21.17
2019-04-20T12:20:24.768Z,21.22
2019-04-20T12:22:54.703Z,21.23
2019-04-20T12:25:24.263Z,21.21
2019-04-20T12:27:56.785Z,21.16
2019-04-20T12:30:25.896Z,21.15
2019-04-20T12:32:59.994Z,21.22
2019-04-20T12:35:26.645Z,21.26
2019-04-20T12:37:56.907Z,21.23
2019-04-20T12:40:26.561Z,21.24
2019-04-20T12:42:57.163Z,21.26
2019-04-20T12:45:27.269Z,21.29
2019-04-20T12:47:57.560Z,21.38
2019-04-20T12:50:27.707Z,21.37
2019-04-20T12:52:57.111Z,21.36
2019-04-20T12:55:26.786Z,21.37
2019-04-20T12:57:56.726Z,21.38
2019-04-20T13:00:33.270Z,21.40
2019-04-20T13:03:03.293Z,21.40
2019-04-20T13:05:33.863Z,21.45
2019-04-20T13:08:04.585Z,21.43
2019-04-20T13:10:35.781Z,21.39
2019-04-20T13:13:10.339Z,21.36
2019-04-20T13:15:44.629Z,21.36
2019-04-20T13:18:16.964Z,21.45
2019-04-20T13:20:47.811Z,21.49
2019-04-20T13:23:17.571Z,21.48
2019-04-20T13:25:46.991Z,21.49
2019-04-20T13:28:16.935Z,21.55
2019-04-20T13:30:46.487Z,21.59
2019-04-20T13:33:15.937Z,21.64
2019-04-20T13:35:46.079Z,21.69
2019-04-20T13:38:16.248Z,21.76
2019-04-20T13:40:45.950Z,21.81
2019-04-20T13:43:17.674Z,21.81
2019-04-20T13:45:47.086Z,21.84
2019-04-20T13:48:16.993Z,21.84
2019-04-20T13:50:46.724Z,21.76
2019-04-20T13:53:17.040Z,21.65
2019-04-20T13:55:47.726Z,21.66
2019-04-20T13:58:22.073Z,21.64
2019-04-20T14:00:57.335Z,21.61
2019-04-20T14:03:30.206Z,21.52
2019-04-20T14:06:00.637Z,21.43
2019-04-20T14:08:31.739Z,21.43
2019-04-20T14:11:01.241Z,21.48
2019-04-20T14:13:39.264Z,21.46
2019-04-20T14:16:03.063Z,21.53
2019-04-20T14:18:33.414Z,21.62
2019-04-20T14:21:02.876Z,21.68
2019-04-20T14:23:32.833Z,21.71
2019-04-20T14:26:03.098Z,21.65
2019-04-20T14:28:33.316Z,21.67
2019-04-20T14:31:03.896Z,21.68
2019-04-20T14:33:34.853Z,21.66
2019-04-20T14:36:05.174Z,21.57
2019-04-20T14:38:36.064Z,21.54
2019-04-20T14:41:06.387Z,21.49
2019-04-20T14:43:36.980Z,21.45
2019-04-20T14:46:08.555Z,21.42
2019-04-20T14:48:38.583Z,21.41
2019-04-20T14:51:08.123Z,21.45
2019-04-20T14:53:37.808Z,21.45
2019-04-20T14:56:09.542Z,21.45
2019-04-20T14:58:49.569Z,21.42
2019-04-20T15:01:24.795Z,21.40
2019-04-20T15:04:00.185Z,21.34
2019-04-20T15:06:25.596Z,21.34
2019-04-20T15:08:55.020Z,21.35
2019-04-20T15:11:24.970Z,21.35
2019-04-20T15:13:54.555Z,21.34
2019-04-20T15:16:24.656Z,21.37
2019-04-20T15:18:59.898Z,21.33
2019-04-20T15:21:31.461Z,21.32
2019-04-20T15:24:01.730Z,21.32
2019-04-20T15:26:31.359Z,21.27
2019-04-20T15:29:02.076Z,21.25
2019-04-20T15:31:32.183Z,21.24
2019-04-20T15:34:01.686Z,21.25
2019-04-20T15:36:31.876Z,21.25
2019-04-20T15:39:01.447Z,21.23
2019-04-20T15:41:33.603Z,21.17
2019-04-20T15:44:03.646Z,21.10
2019-04-20T15:46:34.817Z,21.08
2019-04-20T15:49:06.053Z,21.05
2019-04-20T15:51:35.876Z,20.98
2019-04-20T15:54:05.499Z,20.97
2019-04-20T15:56:35.451Z,20.97
2019-04-20T15:59:06.260Z,20.96
2019-04-20T16:01:38.540Z,20.93
2019-04-20T16:04:23.148Z,20.90
2019-04-20T16:06:45.234Z,20.86
2019-04-20T16:09:15.660Z,20.75
2019-04-20T16:11:46.694Z,20.72
2019-04-20T16:14:17.481Z,20.68
2019-04-20T16:16:48.527Z,20.63
2019-04-20T16:19:34.207Z,20.58
2019-04-20T16:21:49.880Z,20.57
2019-04-20T16:24:22.295Z,20.57
2019-04-20T16:26:53.801Z,20.55
2019-04-20T16:29:23.915Z,20.55
2019-04-20T16:31:54.340Z,20.52
2019-04-20T16:34:23.814Z,20.44
2019-04-20T16:36:56.075Z,20.37
2019-04-20T16:39:24.765Z,20.35
2019-04-20T16:41:54.197Z,20.30
2019-04-20T16:44:25.041Z,20.24
2019-04-20T16:46:54.644Z,20.17
2019-04-20T16:49:25.470Z,20.14
2019-04-20T16:51:55.106Z,20.09
2019-04-20T16:54:25.796Z,20.05
2019-04-20T16:56:55.524Z,20.00
2019-04-20T16:59:24.951Z,19.93
2019-04-20T17:01:54.453Z,19.86
2019-04-20T17:04:25.049Z,19.81
2019-04-20T17:07:16.548Z,19.75
2019-04-20T17:09:47.833Z,19.69
2019-04-20T17:12:17.757Z,19.64
2019-04-20T17:14:47.668Z,19.58
2019-04-20T17:17:17.753Z,19.70
2019-04-20T17:19:47.522Z,20.13
2019-04-20T17:22:17.314Z,20.50
2019-04-20T17:24:47.240Z,20.59
2019-04-20T17:27:27.188Z,20.55
2019-04-20T17:29:59.036Z,20.43
2019-04-20T17:32:31.762Z,20.22
2019-04-20T17:35:19.343Z,20.03
2019-04-20T17:37:39.949Z,19.83
2019-04-20T17:40:28.667Z,19.65
2019-04-20T17:42:50.614Z,19.50
2019-04-20T17:45:19.406Z,19.36
2019-04-20T17:47:58.512Z,19.20
2019-04-20T17:50:31.840Z,19.05
2019-04-20T17:52:59.584Z,18.96
2019-04-20T17:55:40.949Z,18.87
2019-04-20T17:58:12.106Z,18.77
2019-04-20T18:00:52.838Z,18.67
2019-04-20T18:04:01.597Z,18.53
2019-04-20T18:06:15.057Z,18.39
2019-04-20T18:08:45.397Z,18.27
2019-04-20T18:11:07.291Z,18.14
2019-04-20T18:13:32.071Z,18.02
2019-04-20T18:16:22.412Z,17.91
2019-04-20T18:19:00.305Z,17.82
2019-04-20T18:21:26.669Z,17.71
2019-04-20T18:23:56.412Z,17.56
2019-04-20T18:26:42.945Z,17.43
2019-04-20T18:29:13.392Z,17.31
2019-04-20T18:31:31.418Z,17.15
2019-04-20T18:34:08.891Z,17.02
2019-04-20T18:36:38.245Z,16.89
2019-04-20T18:39:13.263Z,16.76
2019-04-20T18:41:46.636Z,16.62
2019-04-20T18:44:12.777Z,16.50
2019-04-20T18:47:09.473Z,16.42
2019-04-20T18:49:26.964Z,16.31
2019-04-20T18:51:46.031Z,16.21
2019-04-20T18:54:21.590Z,16.13
2019-04-20T18:56:50.702Z,16.04
2019-04-20T18:59:19.045Z,15.94
2019-04-20T19:01:48.845Z,15.85
2019-04-20T19:04:19.729Z,15.78
2019-04-20T19:06:50.029Z,15.71
2019-04-20T19:09:25.046Z,15.64
2019-04-20T19:11:59.981Z,15.58
2019-04-20T19:14:33.507Z,15.51
2019-04-20T19:17:09.376Z,15.44
2019-04-20T19:19:37.536Z,15.38
2019-04-20T19:22:01.760Z,15.36
2019-04-20T19:24:33.564Z,15.30
2019-04-20T19:27:07.824Z,15.27
2019-04-20T19:29:39.166Z,15.22
2019-04-20T19:32:19.400Z,15.18
2019-04-20T19:34:46.166Z,15.12
2019-04-20T19:37:19.269Z,15.06
2019-04-20T19:39:53.267Z,15.01
2019-04-20T19:42:27.635Z,14.94
2019-04-20T19:44:58.024Z,14.89
2019-04-20T19:47:35.070Z,14.82
2019-04-20T19:50:11.229Z,14.74
2019-04-20T19:52:46.361Z,14.64
2019-04-20T19:55:08.981Z,14.57
2019-04-20T19:57:41.257Z,14.51
2019-04-20T19:59:54.196Z,14.44
2019-04-20T20:02:21.629Z,14.39
2019-04-20T20:04:55.922Z,14.34
2019-04-20T20:07:31.025Z,14.28
2019-04-20T20:09:58.223Z,14.23
2019-04-20T20:12:25.454Z,14.17
2019-04-20T20:14:57.434Z,14.12
2019-04-20T20:17:52.229Z,14.06
2019-04-20T20:22:37.837Z,13.94
2019-04-20T20:25:01.095Z,13.86
2019-04-20T20:27:45.590Z,13.80
2019-04-20T20:30:09.254Z,13.73
2019-04-20T20:32:54.942Z,13.68
2019-04-20T20:35:17.873Z,13.62
2019-04-20T20:37:47.458Z,13.57
2019-04-20T20:40:20.590Z,13.51
2019-04-20T20:42:54.769Z,13.44
2019-04-20T20:45:22.699Z,13.38
2019-04-20T20:48:06.226Z,13.33
2019-04-20T20:50:37.494Z,13.27
2019-04-20T20:53:03.542Z,13.23
2019-04-20T20:55:29.439Z,13.18
2019-04-20T20:58:01.140Z,13.13
2019-04-20T21:00:34.521Z,13.08
2019-04-20T21:02:59.339Z,13.05
2019-04-20T21:05:23.932Z,13.00
2019-04-20T21:07:53.553Z,12.98
2019-04-20T21:10:29.990Z,12.94
2019-04-20T21:12:57.936Z,12.90
2019-04-20T21:15:26.905Z,12.85
2019-04-20T21:18:24.743Z,12.81
2019-04-20T21:20:47.853Z,12.76
2019-04-20T21:23:15.171Z,12.71
2019-04-20T21:25:37.721Z,12.68
2019-04-20T21:28:04.815Z,12.62
2019-04-20T21:30:39.990Z,12.56
2019-04-20T21:33:07.892Z,12.50
2019-04-20T21:35:41.748Z,12.43
2019-04-20T21:38:11.449Z,12.37
2019-04-20T21:40:42.677Z,12.31
2019-04-20T21:43:11.357Z,12.26
2019-04-20T21:45:48.450Z,12.20
2019-04-20T21:48:33.870Z,12.12
2019-04-20T21:51:07.015Z,12.07
2019-04-20T21:53:22.896Z,12.02
2019-04-20T21:55:49.891Z,11.98
2019-04-20T21:58:27.986Z,11.93
2019-04-20T22:01:06.679Z,11.87
2019-04-20T22:03:26.755Z,11.82
2019-04-20T22:06:02.495Z,11.76
2019-04-20T22:08:32.734Z,11.72
2019-04-20T22:11:03.924Z,11.66
2019-04-20T22:13:38.863Z,11.62
2019-04-20T22:16:10.285Z,11.60
2019-04-20T22:18:48.416Z,11.57
2019-04-20T22:21:17.448Z,11.56
2019-04-20T22:23:54.975Z,11.51
2019-04-20T22:26:24.073Z,11.46
2019-04-20T22:28:42.419Z,11.43
2019-04-20T22:31:12.044Z,11.37
2019-04-20T22:33:44.647Z,11.32
2019-04-20T22:36:14.561Z,11.28
2019-04-20T22:39:03.716Z,11.23
2019-04-20T22:41:38.701Z,11.17
2019-04-20T22:44:13.625Z,11.12
2019-04-20T22:46:42.206Z,11.07
2019-04-20T22:49:29.464Z,11.02
2019-04-20T22:51:54.965Z,10.96
2019-04-20T22:54:32.631Z,10.90
2019-04-20T22:56:57.613Z,10.85
2019-04-20T22:59:21.107Z,10.80
2019-04-20T23:01:53.508Z,10.78
2019-04-20T23:04:19.142Z,10.74
2019-04-20T23:06:50.634Z,10.70
2019-04-20T23:09:20.576Z,10.65
2019-04-20T23:11:53.746Z,10.62
2019-04-20T23:14:22.506Z,10.59
2019-04-20T23:16:54.404Z,10.56
2019-04-20T23:19:35.719Z,10.51
2019-04-20T23:21:59.664Z,10.47
2019-04-20T23:24:26.934Z,10.45
2019-04-20T23:26:57.367Z,10.43
2019-04-20T23:29:31.451Z,10.38
2019-04-20T23:32:03.000Z,10.34
2019-04-20T23:34:32.434Z,10.30
2019-04-20T23:37:00.958Z,10.25
2019-04-20T23:39:36.439Z,10.20
2019-04-20T23:42:06.783Z,10.16
2019-04-20T23:44:35.748Z,10.15
2019-04-20T23:47:25.622Z,10.14
2019-04-20T23:50:19.473Z,10.12
2019-04-20T23:52:59.729Z,10.07
2019-04-20T23:55:12.936Z,10.02
2019-04-20T23:57:41.866Z,9.99
